Etusivu
METAR-TAF:

METAR-TAF

Lentoasemat :

Luxeuil-les-Bains, Ranska

Leveyspiiri: 47-47N, Pituuspiiri: 006-21E, korkeus merenpinnasta: 278 m

Tämänhetkinen sää

Tämä raportti tehtiin 19 minuuttia sitten, kello 18.00 UTC
Tuuli 4 kn luoteesta, vaihdellen lännen/luoteen ja pohjoisen välillä
Lämpötila 26°C
Kosteus 48%
Ilmanpaine 1019 hPa
Näkyvyys 10 km tai enemmän
ei pilviä alle 1500 m:ssä eikä cumulonimbus-pilviä

METAR: LFSX 151800Z AUTO 32004KT 290V350 CAVOK 26/14 Q1019

Aika: 20:19 (18:19 UTC)

Sääennuste

Tämä raportti tehtiin 28 tuntia ja 19 minuuttia sitten, kello 14.00 UTC
Ennuste voimassa 14. päivästä klo 15 UTC - 15. päivään klo 15 UTC
Tuuli 12 kn lännestä/luoteesta
Näkyvyys 10 km tai enemmän
Hajanaisia pilviä 4500 ft:n korkeudessa
Tulossa
14. päivästä klo 18 UTC - 14. päivään klo 20 UTC
Tuuli 2 kn eri suunnista

TAF: LFSX 141400Z 1415/1515 30012KT 9999 SCT045 BECMG 1418/1420 VRB02KT

Säähavainnot ja -ennusteet yli 4000 lentoasemalta (METAR- ja TAF-raportit).

Käytössä olevat sääasemat on merkitty karttaan keltaisilla ja punaisilla pisteillä.

Aseta hiiri pisteen päälle nähdäksesi sääaseman nimen.

Klikkaa sitten nähdäksesi säähavainnot ja -ennusteet.

Kartan vaihtaminen: klikkaa mustalla rastilla varustettuja vihreitä pisteitä, niin voit zoomata sisään; viivalla varustettua vihreää pistettä, niin voit zoomata ulos tai vihreitä nuolia, niin pääset viereisille kartoille.


METAR-TAF: